Aviation Digital Data Service (ADDS)

Output produced by METARs form (0519 UTC 21 October 2014)
found at http://www.aviationweather.gov/adds/metars/
 
KCMI 210333Z 2104/2124 36005KT P6SM BKN060 
     FM210800 VRB06KT P6SM SCT060 
     FM211300 01011KT P6SM SCT040